Time;durP1;ratioP1;P1;durP2;ratioP2;P2;SDS_P1;SDS_P2;PMS_P1;PMS_P2;Temp;Humidity;BMP_temperature;BMP_pressure;BME280_temperature;BME280_humidity;BME280_pressure;Samples;Min_cycle;Max_cycle;Signal;HPM_P1;HPM_P2
2023/06/06 00:02:19;;;;;;;12.07;11.48;;;;;;;;;;4989705;28;20100;-71
2023/06/06 00:04:45;;;;;;;12.13;11.52;;;;;;;;;;4986855;28;20440;-71
2023/06/06 00:07:12;;;;;;;12.20;11.60;;;;;;;;;;4985337;28;20023;-70
2023/06/06 00:09:37;;;;;;;11.70;11.20;;;;;;;;;;4987800;28;20023;-70
2023/06/06 00:12:04;;;;;;;11.52;11.02;;;;;;;;;;4988128;28;20029;-70
2023/06/06 00:14:31;;;;;;;11.73;11.13;;;;;;;;;;4987876;28;20018;-70
2023/06/06 00:16:56;;;;;;;11.90;11.30;;;;;;;;;;4988112;28;20508;-70
2023/06/06 00:19:22;;;;;;;12.55;11.95;;;;;;;;;;4990172;28;20054;-69
2023/06/06 00:21:47;;;;;;;12.98;12.27;;;;;;;;;;4987380;28;20092;-70
2023/06/06 00:24:12;;;;;;;12.27;11.68;;;;;;;;;;4987214;28;20042;-70
2023/06/06 00:26:38;;;;;;;12.05;11.45;;;;;;;;;;4988683;28;20014;-69
2023/06/06 00:29:03;;;;;;;12.00;11.40;;;;;;;;;;4987777;28;20030;-70
2023/06/06 00:31:30;;;;;;;12.73;12.10;;;;;;;;;;4986630;28;20035;-70
2023/06/06 00:33:55;;;;;;;12.45;11.85;;;;;;;;;;4988711;28;20041;-70
2023/06/06 00:36:21;;;;;;;12.77;12.07;;;;;;;;;;4983167;28;20034;-70
2023/06/06 00:38:47;;;;;;;11.88;11.27;;;;;;;;;;4984960;28;20086;-69
2023/06/06 00:41:12;;;;;;;12.10;11.50;;;;;;;;;;4986401;28;20493;-70
2023/06/06 00:43:37;;;;;;;12.23;11.63;;;;;;;;;;4984397;28;20031;-69
2023/06/06 00:46:03;;;;;;;12.35;11.75;;;;;;;;;;4981996;28;20037;-69
2023/06/06 00:48:28;;;;;;;12.52;11.90;;;;;;;;;;4985958;28;20497;-69
2023/06/06 00:50:54;;;;;;;12.80;12.10;;;;;;;;;;4987857;28;20030;-70
2023/06/06 00:53:20;;;;;;;12.43;11.82;;;;;;;;;;4986630;28;20023;-69
2023/06/06 00:55:45;;;;;;;12.13;11.52;;;;;;;;;;4988356;28;20037;-69
2023/06/06 00:58:12;;;;;;;11.65;11.15;;;;;;;;;;4987718;28;20042;-69
2023/06/06 01:00:39;;;;;;;12.00;11.40;;;;;;;;;;4992616;28;20076;-69
2023/06/06 01:03:09;;;;;;;11.40;10.90;;;;;;;;;;4993138;28;20041;-70
2023/06/06 01:05:34;;;;;;;12.38;11.77;;;;;;;;;;4989885;28;20030;-69
2023/06/06 01:08:00;;;;;;;11.32;10.82;;;;;;;;;;4985152;28;20023;-70
2023/06/06 01:10:25;;;;;;;12.00;11.40;;;;;;;;;;4988915;28;20034;-70
2023/06/06 01:12:50;;;;;;;12.30;11.70;;;;;;;;;;4987667;28;20592;-70
2023/06/06 01:15:17;;;;;;;12.20;11.60;;;;;;;;;;4991954;28;20034;-70
2023/06/06 01:17:46;;;;;;;12.48;11.85;;;;;;;;;;4990465;28;20085;-70
2023/06/06 01:20:12;;;;;;;12.10;11.50;;;;;;;;;;4990586;28;20027;-70
2023/06/06 01:22:38;;;;;;;12.02;11.43;;;;;;;;;;4985508;28;20045;-70
2023/06/06 01:25:04;;;;;;;12.40;11.80;;;;;;;;;;4991411;28;20031;-70
2023/06/06 01:27:33;;;;;;;12.23;11.63;;;;;;;;;;4989472;28;20041;-70
2023/06/06 01:29:58;;;;;;;12.52;11.93;;;;;;;;;;4986355;28;20018;-70
2023/06/06 01:32:26;;;;;;;12.15;11.55;;;;;;;;;;4990605;28;20029;-70
2023/06/06 01:34:51;;;;;;;12.68;12.07;;;;;;;;;;4988194;28;20022;-70
2023/06/06 01:37:36;;;;;;;13.40;12.70;;;;;;;;;;4986660;28;20021;-70
2023/06/06 01:40:03;;;;;;;;;;;;;;;;;;4989905;28;20635;-70
2023/06/06 01:42:29;;;;;;;12.52;11.93;;;;;;;;;;4987516;28;19965;-70
2023/06/06 01:44:56;;;;;;;13.30;12.60;;;;;;;;;;4990264;28;20074;-71
2023/06/06 01:47:21;;;;;;;12.70;12.05;;;;;;;;;;4991377;28;20038;-71
2023/06/06 01:49:46;;;;;;;12.80;12.15;;;;;;;;;;4987913;28;20026;-70
2023/06/06 01:52:12;;;;;;;12.77;12.10;;;;;;;;;;4989684;28;20027;-70
2023/06/06 01:54:40;;;;;;;12.55;11.95;;;;;;;;;;4987378;28;20018;-70
2023/06/06 01:57:07;;;;;;;12.55;11.95;;;;;;;;;;4986800;28;20058;-70
2023/06/06 01:59:32;;;;;;;12.30;11.70;;;;;;;;;;4990045;28;20025;-70
2023/06/06 02:02:00;;;;;;;13.02;12.32;;;;;;;;;;4990401;28;20385;-70
2023/06/06 02:04:25;;;;;;;13.38;12.68;;;;;;;;;;4988405;28;20029;-70
2023/06/06 02:06:51;;;;;;;12.75;12.07;;;;;;;;;;4987409;28;20026;-70
2023/06/06 02:09:16;;;;;;;13.30;12.60;;;;;;;;;;4990956;28;20019;-70
2023/06/06 02:11:42;;;;;;;13.10;12.40;;;;;;;;;;4989302;28;20018;-70
2023/06/06 02:14:08;;;;;;;13.25;12.55;;;;;;;;;;4984173;28;20093;-71
2023/06/06 02:16:36;;;;;;;12.32;11.73;;;;;;;;;;4987493;28;20018;-70
2023/06/06 02:19:01;;;;;;;12.60;12.00;;;;;;;;;;4989264;28;20053;-69
2023/06/06 02:21:26;;;;;;;12.18;11.57;;;;;;;;;;4983728;28;20030;-70
2023/06/06 02:23:52;;;;;;;12.93;12.23;;;;;;;;;;4985476;28;20102;-70
2023/06/06 02:26:17;;;;;;;12.05;11.45;;;;;;;;;;4988087;28;20030;-69
2023/06/06 02:28:42;;;;;;;12.70;12.10;;;;;;;;;;4989642;28;20493;-69
2023/06/06 02:31:09;;;;;;;12.70;12.10;;;;;;;;;;4989893;28;20485;-69
2023/06/06 02:33:34;;;;;;;12.85;12.15;;;;;;;;;;4990131;28;20383;-69
2023/06/06 02:36:00;;;;;;;12.52;11.93;;;;;;;;;;4989560;28;20085;-70
2023/06/06 02:38:25;;;;;;;12.70;12.10;;;;;;;;;;4990068;28;20041;-69
2023/06/06 02:40:51;;;;;;;13.07;12.38;;;;;;;;;;4987882;28;20426;-70
2023/06/06 02:43:16;;;;;;;12.98;12.27;;;;;;;;;;4991744;28;20032;-68
2023/06/06 02:45:41;;;;;;;12.23;11.63;;;;;;;;;;4988137;28;20018;-70
2023/06/06 02:48:07;;;;;;;12.52;11.93;;;;;;;;;;4985507;28;20053;-69
2023/06/06 02:50:32;;;;;;;12.35;11.75;;;;;;;;;;4989487;28;20022;-70
2023/06/06 02:53:03;;;;;;;12.98;12.27;;;;;;;;;;4982715;28;20026;-70
2023/06/06 02:55:28;;;;;;;12.10;11.50;;;;;;;;;;4988885;28;20122;-69
2023/06/06 02:57:53;;;;;;;12.15;11.55;;;;;;;;;;4982610;28;20109;-70
2023/06/06 03:00:18;;;;;;;13.15;12.45;;;;;;;;;;4987587;28;20048;-70
2023/06/06 03:02:44;;;;;;;12.77;12.10;;;;;;;;;;4987822;28;20505;-69
2023/06/06 03:05:11;;;;;;;12.50;11.90;;;;;;;;;;4989490;28;20022;-69
2023/06/06 03:07:38;;;;;;;12.18;11.57;;;;;;;;;;4988240;28;20014;-69
2023/06/06 03:10:03;;;;;;;13.20;12.50;;;;;;;;;;4984251;28;20022;-69
2023/06/06 03:12:28;;;;;;;13.20;12.50;;;;;;;;;;4986533;28;20026;-70
2023/06/06 03:14:54;;;;;;;12.40;11.80;;;;;;;;;;4984390;28;20138;-70
2023/06/06 03:17:19;;;;;;;13.35;12.65;;;;;;;;;;4985802;28;20109;-70
2023/06/06 03:19:48;;;;;;;12.52;11.93;;;;;;;;;;4988611;28;20058;-71
2023/06/06 03:22:15;;;;;;;12.32;11.73;;;;;;;;;;4983022;28;20022;-69
2023/06/06 03:24:40;;;;;;;11.80;11.30;;;;;;;;;;4988618;28;20050;-70
2023/06/06 03:27:06;;;;;;;11.98;11.40;;;;;;;;;;4982109;28;20033;-70
2023/06/06 03:29:32;;;;;;;12.20;11.60;;;;;;;;;;4987862;28;20048;-70
2023/06/06 03:31:57;;;;;;;12.20;11.60;;;;;;;;;;4989353;28;20026;-70
2023/06/06 03:34:25;;;;;;;12.73;12.13;;;;;;;;;;4987703;28;20045;-70
2023/06/06 03:36:52;;;;;;;12.23;11.63;;;;;;;;;;4986186;28;20478;-69
2023/06/06 03:39:17;;;;;;;12.50;11.90;;;;;;;;;;4987797;28;20474;-70
2023/06/06 03:41:42;;;;;;;12.38;11.77;;;;;;;;;;4987935;28;20029;-70
2023/06/06 03:44:08;;;;;;;12.18;11.57;;;;;;;;;;4992556;28;20485;-70
2023/06/06 03:46:34;;;;;;;12.52;11.93;;;;;;;;;;4986004;28;20044;-70
2023/06/06 03:49:00;;;;;;;12.35;11.75;;;;;;;;;;4984669;28;20489;-70
2023/06/06 03:51:26;;;;;;;12.40;11.80;;;;;;;;;;4989256;28;20022;-69
2023/06/06 03:53:51;;;;;;;12.50;11.90;;;;;;;;;;4988862;28;20030;-70
2023/06/06 03:56:16;;;;;;;12.40;11.80;;;;;;;;;;4989251;28;20026;-70
2023/06/06 03:58:43;;;;;;;12.48;11.88;;;;;;;;;;4984785;28;20523;-70
2023/06/06 04:01:10;;;;;;;12.27;11.68;;;;;;;;;;4988431;28;20547;-70
2023/06/06 04:03:40;;;;;;;12.32;11.73;;;;;;;;;;4986995;28;20675;-69
2023/06/06 04:06:07;;;;;;;13.52;12.82;;;;;;;;;;4985679;28;20096;-70
2023/06/06 04:08:33;;;;;;;12.32;11.73;;;;;;;;;;4990247;28;20018;-70
2023/06/06 04:10:58;;;;;;;12.25;11.65;;;;;;;;;;4985852;28;20045;-70
2023/06/06 04:13:27;;;;;;;12.82;12.23;;;;;;;;;;4985043;28;20022;-70
2023/06/06 04:15:52;;;;;;;12.90;12.27;;;;;;;;;;4988018;28;20176;-70
2023/06/06 04:18:17;;;;;;;12.93;12.30;;;;;;;;;;4989155;28;20097;-70
2023/06/06 04:20:44;;;;;;;13.05;12.43;;;;;;;;;;4986098;28;20014;-69
2023/06/06 04:23:09;;;;;;;12.75;12.15;;;;;;;;;;4984202;28;20042;-70
2023/06/06 04:25:35;;;;;;;12.07;11.48;;;;;;;;;;4991496;28;20484;-69
2023/06/06 04:28:00;;;;;;;13.15;12.45;;;;;;;;;;4989859;28;20077;-70
2023/06/06 04:30:29;;;;;;;13.20;12.50;;;;;;;;;;4988658;28;20029;-70
2023/06/06 04:32:55;;;;;;;13.23;12.52;;;;;;;;;;4986938;28;20081;-70
2023/06/06 04:35:20;;;;;;;12.38;11.77;;;;;;;;;;4990684;28;20038;-69
2023/06/06 04:37:50;;;;;;;12.52;11.93;;;;;;;;;;4992136;28;20525;-70
2023/06/06 04:40:15;;;;;;;13.50;12.80;;;;;;;;;;4992941;28;20640;-70
2023/06/06 04:42:42;;;;;;;13.60;12.90;;;;;;;;;;4985577;28;20105;-70
2023/06/06 04:45:08;;;;;;;13.43;12.73;;;;;;;;;;4990569;28;20105;-70
2023/06/06 04:47:34;;;;;;;12.60;12.00;;;;;;;;;;4986286;28;20023;-70
2023/06/06 04:49:59;;;;;;;12.50;11.90;;;;;;;;;;4990947;28;20118;-68
2023/06/06 04:52:25;;;;;;;12.63;12.02;;;;;;;;;;4989142;28;20455;-68
2023/06/06 04:54:51;;;;;;;12.88;12.27;;;;;;;;;;4991635;28;20048;-68
2023/06/06 04:57:17;;;;;;;12.93;12.32;;;;;;;;;;4989251;28;20397;-68
2023/06/06 04:59:53;;;;;;;13.15;12.55;;;;;;;;;;4989960;28;20030;-68
2023/06/06 05:02:20;;;;;;;12.30;11.70;;;;;;;;;;4987652;28;20030;-68
2023/06/06 05:04:47;;;;;;;11.70;11.20;;;;;;;;;;4988239;28;20551;-68
2023/06/06 05:07:13;;;;;;;12.07;11.57;;;;;;;;;;4986907;28;20027;-68
2023/06/06 05:09:38;;;;;;;11.90;11.40;;;;;;;;;;4986863;28;20022;-69
2023/06/06 05:12:03;;;;;;;12.67;12.07;;;;;;;;;;4989675;28;20037;-68
2023/06/06 05:14:29;;;;;;;12.32;11.77;;;;;;;;;;4989460;28;20376;-68
2023/06/06 05:16:54;;;;;;;12.02;11.52;;;;;;;;;;4987298;28;20027;-68
2023/06/06 05:19:20;;;;;;;12.10;11.60;;;;;;;;;;4991067;28;20029;-69
2023/06/06 05:21:46;;;;;;;12.73;12.13;;;;;;;;;;4987963;28;20381;-69
2023/06/06 05:24:12;;;;;;;12.57;11.98;;;;;;;;;;4990208;28;20053;-68
2023/06/06 05:26:37;;;;;;;12.23;11.73;;;;;;;;;;4987805;28;20478;-68
2023/06/06 05:29:02;;;;;;;12.00;11.50;;;;;;;;;;4989864;28;20018;-68
2023/06/06 05:31:28;;;;;;;11.95;11.45;;;;;;;;;;4988085;28;20268;-68
2023/06/06 05:33:54;;;;;;;12.10;11.60;;;;;;;;;;4986535;28;20639;-65
2023/06/06 05:36:20;;;;;;;11.70;11.20;;;;;;;;;;4985965;28;20023;-70
2023/06/06 05:38:45;;;;;;;12.20;11.70;;;;;;;;;;4989166;28;20374;-70
2023/06/06 05:41:11;;;;;;;12.43;11.85;;;;;;;;;;4987795;28;20038;-70
2023/06/06 05:43:36;;;;;;;12.63;12.02;;;;;;;;;;4981872;28;20030;-70
2023/06/06 05:46:01;;;;;;;12.20;11.70;;;;;;;;;;4984561;28;20014;-70
2023/06/06 05:48:27;;;;;;;12.02;11.52;;;;;;;;;;4986237;28;20519;-70
2023/06/06 05:50:53;;;;;;;12.15;11.65;;;;;;;;;;4988286;28;20025;-70
2023/06/06 05:53:18;;;;;;;12.10;11.60;;;;;;;;;;4983353;28;20041;-70
2023/06/06 05:55:43;;;;;;;12.52;11.93;;;;;;;;;;4985507;28;20030;-70
2023/06/06 05:58:09;;;;;;;11.90;11.40;;;;;;;;;;4984999;28;20029;-70
2023/06/06 06:00:35;;;;;;;11.95;11.45;;;;;;;;;;4986502;28;20284;-70
2023/06/06 06:03:01;;;;;;;11.77;11.27;;;;;;;;;;4988760;28;20177;-70
2023/06/06 06:05:30;;;;;;;12.02;11.52;;;;;;;;;;4985765;28;20022;-70
2023/06/06 06:08:01;;;;;;;11.93;11.43;;;;;;;;;;4990436;28;20023;-69
2023/06/06 06:10:27;;;;;;;12.00;11.50;;;;;;;;;;4989547;28;20026;-69
2023/06/06 06:12:54;;;;;;;13.45;12.85;;;;;;;;;;4980618;28;20026;-71
2023/06/06 06:15:19;;;;;;;12.75;12.15;;;;;;;;;;4981171;28;20106;-71
2023/06/06 06:17:45;;;;;;;12.68;12.07;;;;;;;;;;4979855;28;20101;-72
2023/06/06 06:20:11;;;;;;;13.15;12.55;;;;;;;;;;4982303;28;20121;-74
2023/06/06 06:22:36;;;;;;;12.20;11.70;;;;;;;;;;4982671;28;20026;-72
2023/06/06 06:25:03;;;;;;;12.55;11.95;;;;;;;;;;4988487;28;20081;-75
2023/06/06 06:27:29;;;;;;;12.60;12.00;;;;;;;;;;4977638;28;20120;-72
2023/06/06 06:29:55;;;;;;;13.25;12.65;;;;;;;;;;4982901;28;20579;-71
2023/06/06 06:32:20;;;;;;;12.07;11.57;;;;;;;;;;4986984;28;20481;-70
2023/06/06 06:34:45;;;;;;;13.48;12.88;;;;;;;;;;4981392;28;20287;-71
2023/06/06 06:37:11;;;;;;;12.48;11.90;;;;;;;;;;4983594;28;20026;-70
2023/06/06 06:39:36;;;;;;;12.05;11.55;;;;;;;;;;4985087;28;20568;-70
2023/06/06 06:42:01;;;;;;;12.60;12.00;;;;;;;;;;4988401;28;20022;-70
2023/06/06 06:44:27;;;;;;;12.20;11.70;;;;;;;;;;4983942;28;20318;-71
2023/06/06 06:46:52;;;;;;;12.67;12.07;;;;;;;;;;4986960;28;20047;-71
2023/06/06 06:49:17;;;;;;;13.27;12.67;;;;;;;;;;4984998;28;20389;-74
2023/06/06 06:51:44;;;;;;;12.73;12.13;;;;;;;;;;4981590;28;20311;-70
2023/06/06 06:54:12;;;;;;;12.60;12.00;;;;;;;;;;4984953;28;20057;-71
2023/06/06 06:56:37;;;;;;;12.15;11.65;;;;;;;;;;4985516;28;20485;-73
2023/06/06 06:59:03;;;;;;;12.43;11.82;;;;;;;;;;4986380;28;20045;-71
2023/06/06 07:01:29;;;;;;;12.60;12.00;;;;;;;;;;4978660;28;20068;-71
2023/06/06 07:03:54;;;;;;;14.05;13.43;;;;;;;;;;4984542;28;20041;-72
2023/06/06 07:06:20;;;;;;;13.00;12.40;;;;;;;;;;4981561;28;20389;-71
2023/06/06 07:08:45;;;;;;;13.05;12.45;;;;;;;;;;4980869;28;20022;-71
2023/06/06 07:11:11;;;;;;;12.88;12.27;;;;;;;;;;4983568;28;20474;-73
2023/06/06 07:13:36;;;;;;;12.63;12.02;;;;;;;;;;4983121;28;20010;-73
2023/06/06 07:16:01;;;;;;;12.60;12.00;;;;;;;;;;4983644;28;20409;-72
2023/06/06 07:18:27;;;;;;;13.45;12.85;;;;;;;;;;4986281;28;20271;-70
2023/06/06 07:20:52;;;;;;;13.20;12.60;;;;;;;;;;4984508;28;20041;-70
2023/06/06 07:23:17;;;;;;;12.55;11.95;;;;;;;;;;4980779;28;20065;-71
2023/06/06 07:25:43;;;;;;;13.20;12.60;;;;;;;;;;4982372;28;20043;-72
2023/06/06 07:28:10;;;;;;;14.25;13.55;;;;;;;;;;4979107;28;20023;-73
2023/06/06 07:30:35;;;;;;;12.55;11.95;;;;;;;;;;4978634;28;20030;-72
2023/06/06 07:33:00;;;;;;;13.13;12.52;;;;;;;;;;4986535;28;20380;-74
2023/06/06 07:35:32;;;;;;;13.15;12.55;;;;;;;;;;4983552;28;20780;-75
2023/06/06 07:37:57;;;;;;;13.25;12.65;;;;;;;;;;4984602;28;20037;-74
2023/06/06 07:40:22;;;;;;;13.20;12.60;;;;;;;;;;4977495;28;20453;-73
2023/06/06 07:42:48;;;;;;;13.13;12.53;;;;;;;;;;4982041;28;20105;-72
2023/06/06 07:45:13;;;;;;;14.10;13.40;;;;;;;;;;4984746;28;20284;-74
2023/06/06 07:47:40;;;;;;;13.75;13.05;;;;;;;;;;4983518;28;20030;-72
2023/06/06 07:50:06;;;;;;;12.70;12.10;;;;;;;;;;4982713;28;20023;-76
2023/06/06 07:52:32;;;;;;;13.77;13.07;;;;;;;;;;4980052;28;20050;-72
2023/06/06 07:54:58;;;;;;;12.68;12.07;;;;;;;;;;4983495;28;20061;-72
2023/06/06 07:57:26;;;;;;;14.05;13.35;;;;;;;;;;4983697;28;20069;-79
2023/06/06 07:59:53;;;;;;;12.98;12.38;;;;;;;;;;4978548;28;20043;-76
2023/06/06 08:02:19;;;;;;;13.85;13.15;;;;;;;;;;4983718;28;20022;-75
2023/06/06 08:04:45;;;;;;;13.70;13.00;;;;;;;;;;4985562;28;20060;-75
2023/06/06 08:07:11;;;;;;;13.82;13.13;;;;;;;;;;4981467;28;20018;-72
2023/06/06 08:09:37;;;;;;;13.43;12.75;;;;;;;;;;4984389;28;20026;-75
2023/06/06 08:12:03;;;;;;;13.05;12.45;;;;;;;;;;4989140;28;20030;-71
2023/06/06 08:14:29;;;;;;;14.15;13.45;;;;;;;;;;4987347;28;20022;-75
2023/06/06 08:16:54;;;;;;;14.15;13.45;;;;;;;;;;4987379;28;20026;-74
2023/06/06 08:19:20;;;;;;;13.73;13.02;;;;;;;;;;4984774;28;20027;-74
2023/06/06 08:21:45;;;;;;;13.57;12.90;;;;;;;;;;4986153;28;20064;-78
2023/06/06 08:24:10;;;;;;;12.80;12.20;;;;;;;;;;4982912;28;20051;-72
2023/06/06 08:26:35;;;;;;;15.45;14.65;;;;;;;;;;4985369;28;20025;-75
2023/06/06 08:29:01;;;;;;;12.93;12.32;;;;;;;;;;4988303;28;20034;-75
2023/06/06 08:31:29;;;;;;;13.50;12.80;;;;;;;;;;4986014;28;20030;-76
2023/06/06 08:33:54;;;;;;;13.88;13.18;;;;;;;;;;4979509;28;20027;-75
2023/06/06 08:36:20;;;;;;;13.68;12.98;;;;;;;;;;4990466;28;20405;-77
2023/06/06 08:38:45;;;;;;;12.68;12.07;;;;;;;;;;4988085;28;20062;-72
2023/06/06 08:41:12;;;;;;;13.88;13.18;;;;;;;;;;4990958;28;20108;-75
2023/06/06 08:43:39;;;;;;;14.13;13.43;;;;;;;;;;4981044;28;20114;-78
2023/06/06 08:46:04;;;;;;;14.32;13.63;;;;;;;;;;4988910;28;20034;-72
2023/06/06 08:48:31;;;;;;;12.98;12.38;;;;;;;;;;4988624;28;20075;-74
2023/06/06 08:50:58;;;;;;;13.30;12.63;;;;;;;;;;4984551;28;20599;-77
2023/06/06 08:53:25;;;;;;;14.52;13.75;;;;;;;;;;4983919;28;20076;-75
2023/06/06 08:55:55;;;;;;;14.65;13.88;;;;;;;;;;4987911;28;20168;-74
2023/06/06 08:58:22;;;;;;;13.57;12.88;;;;;;;;;;4979721;28;20026;-77
2023/06/06 09:00:49;;;;;;;13.73;13.02;;;;;;;;;;4982055;28;20113;-76
2023/06/06 09:03:16;;;;;;;14.00;13.30;;;;;;;;;;4983492;28;20072;-74
2023/06/06 09:05:42;;;;;;;13.75;13.05;;;;;;;;;;4984561;28;20074;-76
2023/06/06 09:08:07;;;;;;;13.48;12.77;;;;;;;;;;4981940;28;20022;-69
2023/06/06 09:10:32;;;;;;;15.10;14.30;;;;;;;;;;4982323;28;20028;-70
2023/06/06 09:12:58;;;;;;;14.23;13.52;;;;;;;;;;4985281;28;20033;-73
2023/06/06 09:15:25;;;;;;;13.43;12.73;;;;;;;;;;4985600;28;20037;-74
2023/06/06 09:17:54;;;;;;;15.38;14.57;;;;;;;;;;4986176;28;20033;-74
2023/06/06 09:20:20;;;;;;;14.32;13.63;;;;;;;;;;4987355;28;20034;-74
2023/06/06 09:22:46;;;;;;;14.55;13.80;;;;;;;;;;4988227;28;20062;-73
2023/06/06 09:25:17;;;;;;;13.98;13.27;;;;;;;;;;4988520;28;20042;-72
2023/06/06 09:27:43;;;;;;;13.43;12.73;;;;;;;;;;4983084;28;20510;-74
2023/06/06 09:30:18;;;;;;;12.88;12.27;;;;;;;;;;4986177;28;20090;-75
2023/06/06 09:32:43;;;;;;;13.95;13.25;;;;;;;;;;4989288;28;20026;-73
2023/06/06 09:35:09;;;;;;;15.07;14.27;;;;;;;;;;4982854;28;20022;-70
2023/06/06 09:37:38;;;;;;;13.80;13.10;;;;;;;;;;4985427;28;20023;-71
2023/06/06 09:40:11;;;;;;;13.73;13.02;;;;;;;;;;4984705;28;20031;-71
2023/06/06 09:42:37;;;;;;;13.93;13.23;;;;;;;;;;4982678;28;20104;-71
2023/06/06 09:45:11;;;;;;;13.63;12.93;;;;;;;;;;4979565;28;20489;-71
2023/06/06 09:47:38;;;;;;;14.98;14.18;;;;;;;;;;4984311;28;20169;-71
2023/06/06 09:50:03;;;;;;;12.70;12.10;;;;;;;;;;4985952;28;20023;-72
2023/06/06 09:52:29;;;;;;;13.35;12.65;;;;;;;;;;4994219;28;20782;-73
2023/06/06 09:54:55;;;;;;;13.55;12.85;;;;;;;;;;4988059;28;20035;-72
2023/06/06 09:57:21;;;;;;;14.38;13.68;;;;;;;;;;4983688;28;20122;-73
2023/06/06 09:59:48;;;;;;;14.07;13.38;;;;;;;;;;4984939;28;20401;-72
2023/06/06 10:02:15;;;;;;;13.93;13.23;;;;;;;;;;4985160;28;20030;-71
2023/06/06 10:04:40;;;;;;;13.60;12.90;;;;;;;;;;4984622;28;20025;-75
2023/06/06 10:07:08;;;;;;;13.80;13.10;;;;;;;;;;4978571;28;20758;-72
2023/06/06 10:09:34;;;;;;;14.38;13.68;;;;;;;;;;4987562;28;20027;-73
2023/06/06 10:11:59;;;;;;;13.50;12.80;;;;;;;;;;4983721;28;20049;-71
2023/06/06 10:14:26;;;;;;;13.65;12.95;;;;;;;;;;4985461;28;20019;-70
2023/06/06 10:16:52;;;;;;;13.57;12.88;;;;;;;;;;4990804;28;20144;-70
2023/06/06 10:19:18;;;;;;;13.23;12.55;;;;;;;;;;4990105;28;20030;-73
2023/06/06 10:21:43;;;;;;;14.15;13.45;;;;;;;;;;4983101;28;20437;-73
2023/06/06 10:24:08;;;;;;;14.02;13.32;;;;;;;;;;4981676;28;20540;-71
2023/06/06 10:26:40;;;;;;;14.90;14.10;;;;;;;;;;4985541;28;20396;-70
2023/06/06 10:29:11;;;;;;;13.98;13.27;;;;;;;;;;4977636;28;20493;-69
2023/06/06 10:31:40;;;;;;;14.05;13.35;;;;;;;;;;4983600;28;20053;-71
2023/06/06 10:34:13;;;;;;;14.20;13.50;;;;;;;;;;4984024;28;20038;-70
2023/06/06 10:36:43;;;;;;;14.20;13.50;;;;;;;;;;4986240;28;20042;-71
2023/06/06 10:39:15;;;;;;;13.45;12.75;;;;;;;;;;4985227;28;20825;-71
2023/06/06 10:41:42;;;;;;;13.85;13.15;;;;;;;;;;4978295;28;20026;-69
2023/06/06 10:44:08;;;;;;;12.90;12.30;;;;;;;;;;4979924;28;20034;-68
2023/06/06 10:46:36;;;;;;;13.57;12.88;;;;;;;;;;4977841;28;20065;-65
2023/06/06 10:49:06;;;;;;;13.80;13.10;;;;;;;;;;4980927;28;20092;-66
2023/06/06 10:51:36;;;;;;;14.77;13.98;;;;;;;;;;4984679;28;20026;-67
2023/06/06 10:54:14;;;;;;;14.55;13.75;;;;;;;;;;4983780;28;20442;-67
2023/06/06 10:56:59;;;;;;;13.70;13.00;;;;;;;;;;4985647;28;20036;-69
2023/06/06 10:59:29;;;;;;;14.75;13.95;;;;;;;;;;4977045;28;20320;-67
2023/06/06 11:01:55;;;;;;;14.10;13.40;;;;;;;;;;4983721;28;20022;-68
2023/06/06 11:04:24;;;;;;;13.25;12.55;;;;;;;;;;4987417;28;20464;-66
2023/06/06 11:06:50;;;;;;;14.13;13.43;;;;;;;;;;4982004;28;20038;-67
2023/06/06 11:09:24;;;;;;;14.68;13.88;;;;;;;;;;4981091;28;20577;-68
2023/06/06 11:11:51;;;;;;;13.77;13.07;;;;;;;;;;4985662;28;20027;-69
2023/06/06 11:14:21;;;;;;;13.90;13.20;;;;;;;;;;4985175;28;20502;-70
2023/06/06 11:16:46;;;;;;;13.05;12.40;;;;;;;;;;4983531;28;20034;-69
2023/06/06 11:19:15;;;;;;;12.53;11.93;;;;;;;;;;4982797;28;20023;-70
2023/06/06 11:21:41;;;;;;;13.65;12.95;;;;;;;;;;4986603;28;20268;-70
2023/06/06 11:24:07;;;;;;;12.85;12.25;;;;;;;;;;4987143;28;20057;-70
2023/06/06 11:26:33;;;;;;;13.57;12.88;;;;;;;;;;4986930;28;20026;-69
2023/06/06 11:28:59;;;;;;;13.48;12.77;;;;;;;;;;4981164;28;20018;-71
2023/06/06 11:31:26;;;;;;;14.98;14.18;;;;;;;;;;4982399;28;20044;-65
2023/06/06 11:33:51;;;;;;;13.70;13.00;;;;;;;;;;4977040;28;20962;-66
2023/06/06 11:36:17;;;;;;;13.75;13.05;;;;;;;;;;4978785;28;20050;-68
2023/06/06 11:38:43;;;;;;;13.90;13.20;;;;;;;;;;4976281;28;20113;-70
2023/06/06 11:41:08;;;;;;;13.20;12.50;;;;;;;;;;4978670;28;20119;-71
2023/06/06 11:43:34;;;;;;;13.70;13.00;;;;;;;;;;4984111;28;20293;-69
2023/06/06 11:46:03;;;;;;;13.48;12.77;;;;;;;;;;4979828;28;20030;-69
2023/06/06 11:48:29;;;;;;;13.20;12.50;;;;;;;;;;4981955;28;20047;-70
2023/06/06 11:50:54;;;;;;;13.85;13.15;;;;;;;;;;4978447;28;20022;-70
2023/06/06 11:53:29;;;;;;;13.85;13.15;;;;;;;;;;4985546;28;20022;-69
2023/06/06 11:55:54;;;;;;;13.30;12.60;;;;;;;;;;4979283;28;20027;-69
2023/06/06 11:58:21;;;;;;;13.40;12.70;;;;;;;;;;4977722;28;20476;-69
2023/06/06 12:00:47;;;;;;;12.82;12.23;;;;;;;;;;4985974;28;20323;-68
2023/06/06 12:03:15;;;;;;;13.70;13.00;;;;;;;;;;4981610;28;20029;-69
2023/06/06 12:05:41;;;;;;;13.73;13.02;;;;;;;;;;4981208;28;20039;-69
2023/06/06 12:08:08;;;;;;;13.38;12.68;;;;;;;;;;4991028;28;20535;-68
2023/06/06 12:10:34;;;;;;;13.52;12.82;;;;;;;;;;4982845;28;20026;-69
2023/06/06 12:12:59;;;;;;;13.00;12.38;;;;;;;;;;4975609;28;20504;-69
2023/06/06 12:15:43;;;;;;;13.45;12.75;;;;;;;;;;4978447;28;20105;-68
2023/06/06 12:18:08;;;;;;;13.60;12.90;;;;;;;;;;4979033;28;20026;-70
2023/06/06 12:20:33;;;;;;;13.45;12.75;;;;;;;;;;4981656;28;20022;-69
2023/06/06 12:22:59;;;;;;;13.65;12.95;;;;;;;;;;4980515;28;20050;-68
2023/06/06 12:25:27;;;;;;;14.07;13.38;;;;;;;;;;4979862;28;20042;-69
2023/06/06 12:27:53;;;;;;;13.73;13.02;;;;;;;;;;4977308;28;20449;-69
2023/06/06 12:30:28;;;;;;;14.25;13.52;;;;;;;;;;4984224;28;20019;-69
2023/06/06 12:32:53;;;;;;;14.32;13.52;;;;;;;;;;4981873;28;20034;-70
2023/06/06 12:35:21;;;;;;;12.93;12.32;;;;;;;;;;4981953;28;20184;-70
2023/06/06 12:37:46;;;;;;;12.70;12.10;;;;;;;;;;4978750;28;20040;-69
2023/06/06 12:40:13;;;;;;;13.68;12.98;;;;;;;;;;4983988;28;20470;-69
2023/06/06 12:42:39;;;;;;;13.30;12.60;;;;;;;;;;4980071;28;20031;-69
2023/06/06 12:45:05;;;;;;;13.88;13.18;;;;;;;;;;4982777;28;20027;-68
2023/06/06 12:47:31;;;;;;;14.23;13.45;;;;;;;;;;4984832;28;20018;-68
2023/06/06 12:49:56;;;;;;;12.77;12.18;;;;;;;;;;4988376;28;20027;-69
2023/06/06 12:52:21;;;;;;;13.10;12.40;;;;;;;;;;4985487;28;20015;-69
2023/06/06 12:54:46;;;;;;;13.30;12.60;;;;;;;;;;4985230;28;20401;-68
2023/06/06 12:57:12;;;;;;;13.52;12.82;;;;;;;;;;4990060;28;20121;-69
2023/06/06 12:59:39;;;;;;;13.18;12.48;;;;;;;;;;4986243;28;20069;-68
2023/06/06 13:02:06;;;;;;;13.30;12.60;;;;;;;;;;4980910;28;20057;-69
2023/06/06 13:04:39;;;;;;;13.73;13.02;;;;;;;;;;4981590;28;20087;-69
2023/06/06 13:07:08;;;;;;;13.50;12.80;;;;;;;;;;4984366;28;20746;-69
2023/06/06 13:09:37;;;;;;;13.52;12.82;;;;;;;;;;4981637;28;20023;-68
2023/06/06 13:12:02;;;;;;;13.45;12.75;;;;;;;;;;4985714;28;20081;-69
2023/06/06 13:14:28;;;;;;;12.75;12.15;;;;;;;;;;4980792;28;20035;-68
2023/06/06 13:16:53;;;;;;;14.07;13.38;;;;;;;;;;4985731;28;20030;-69
2023/06/06 13:19:19;;;;;;;13.63;12.93;;;;;;;;;;4987843;28;20385;-68
2023/06/06 13:21:45;;;;;;;13.10;12.45;;;;;;;;;;4980312;28;20247;-68
2023/06/06 13:24:12;;;;;;;12.50;11.90;;;;;;;;;;4983563;28;20054;-68
2023/06/06 13:26:38;;;;;;;13.18;12.48;;;;;;;;;;4982604;28;20389;-69
2023/06/06 13:29:03;;;;;;;12.63;12.02;;;;;;;;;;4996986;28;20033;-68
2023/06/06 13:31:28;;;;;;;13.43;12.73;;;;;;;;;;4987111;28;20033;-70
2023/06/06 13:33:54;;;;;;;13.50;12.80;;;;;;;;;;4981100;28;20027;-69
2023/06/06 13:36:19;;;;;;;13.25;12.55;;;;;;;;;;4985913;28;20288;-69
2023/06/06 13:38:45;;;;;;;12.77;12.18;;;;;;;;;;4982264;28;20077;-70
2023/06/06 13:41:11;;;;;;;13.30;12.60;;;;;;;;;;4980306;28;20569;-71
2023/06/06 13:43:36;;;;;;;13.45;12.75;;;;;;;;;;4983152;28;20171;-69
2023/06/06 13:46:01;;;;;;;13.82;13.13;;;;;;;;;;4980543;28;20030;-67
2023/06/06 13:48:27;;;;;;;13.57;12.88;;;;;;;;;;4985031;28;20517;-67
2023/06/06 13:50:52;;;;;;;12.85;12.25;;;;;;;;;;4988182;28;20011;-67
2023/06/06 13:53:20;;;;;;;12.45;11.85;;;;;;;;;;4986560;28;20021;-68
2023/06/06 13:55:46;;;;;;;12.95;12.32;;;;;;;;;;4980589;28;20113;-68
2023/06/06 13:58:17;;;;;;;13.50;12.80;;;;;;;;;;4982358;28;20254;-65
2023/06/06 14:00:44;;;;;;;13.15;12.45;;;;;;;;;;4977900;28;20030;-67
2023/06/06 14:03:09;;;;;;;13.27;12.57;;;;;;;;;;4980612;28;20154;-67
2023/06/06 14:05:35;;;;;;;14.00;13.30;;;;;;;;;;4981050;28;20117;-65
2023/06/06 14:08:00;;;;;;;12.75;12.15;;;;;;;;;;4985977;28;20409;-66
2023/06/06 14:10:26;;;;;;;13.23;12.52;;;;;;;;;;4982558;28;21219;-64
2023/06/06 14:12:52;;;;;;;13.65;12.95;;;;;;;;;;4976645;28;20101;-67
2023/06/06 14:15:17;;;;;;;13.18;12.52;;;;;;;;;;4982509;28;20027;-68